Time;durP1;ratioP1;P1;durP2;ratioP2;P2;SDS_P1;SDS_P2;PMS_P1;PMS_P2;Temp;Humidity;BMP_temperature;BMP_pressure;BME280_temperature;BME280_humidity;BME280_pressure;Samples;Min_cycle;Max_cycle;Signal;HPM_P1;HPM_P2
2022/03/23 00:02:03;;;;;;;;;;;8.10;38.40;;;;;;6340706;22;19917;-86
2022/03/23 00:04:29;;;;;;;;;;;8.10;38.60;;;;;;6372244;22;19906;-86
2022/03/23 00:06:55;;;;;;;;;;;8.00;38.90;;;;;;6343402;22;19910;-86
2022/03/23 00:09:21;;;;;;;;;;;8.00;38.90;;;;;;6343842;22;19960;-86
2022/03/23 00:11:46;;;;;;;;;;;7.90;39.00;;;;;;6371716;22;19902;-86
2022/03/23 00:14:12;;;;;;;;;;;7.90;39.10;;;;;;6371888;22;19914;-87
2022/03/23 00:16:38;;;;;;;;;;;7.80;39.10;;;;;;6371809;22;20275;-86
2022/03/23 00:19:04;;;;;;;;;;;7.80;39.10;;;;;;6343400;22;20330;-85
2022/03/23 00:21:30;;;;;;;;;;;7.70;39.10;;;;;;6343715;22;20219;-87
2022/03/23 00:23:56;;;;;;;;;;;7.70;39.20;;;;;;6343251;22;19948;-87
2022/03/23 00:26:22;;;;;;;;;;;7.70;39.50;;;;;;6345621;22;19980;-87
2022/03/23 00:28:48;;;;;;;;;;;7.70;39.40;;;;;;6343660;22;19942;-86
2022/03/23 00:31:14;;;;;;;;;;;7.60;39.50;;;;;;6344385;22;19982;-86
2022/03/23 00:33:39;;;;;;;;;;;7.60;39.40;;;;;;6344100;22;20315;-86
2022/03/23 00:36:06;;;;;;;;;;;7.60;39.50;;;;;;6344015;22;19921;-86
2022/03/23 00:38:32;;;;;;;;;;;7.60;39.50;;;;;;6343792;22;19910;-87
2022/03/23 00:40:57;;;;;;;;;;;7.60;39.50;;;;;;6344344;22;20376;-86
2022/03/23 00:43:22;;;;;;;;;;;7.60;39.60;;;;;;6342949;22;19907;-86
2022/03/23 00:45:48;;;;;;;;;;;7.50;39.70;;;;;;6370796;22;19906;-86
2022/03/23 00:48:13;;;;;;;;;;;7.50;39.70;;;;;;6346044;22;20350;-86
2022/03/23 00:50:40;;;;;;;;;;;7.50;39.80;;;;;;6370878;22;19962;-86
2022/03/23 00:53:07;;;;;;;;;;;7.40;39.90;;;;;;6371918;22;20039;-87
2022/03/23 00:55:32;;;;;;;;;;;7.50;39.90;;;;;;6371918;22;19913;-86
2022/03/23 00:57:58;;;;;;;;;;;7.40;39.90;;;;;;6371889;22;20215;-86
2022/03/23 01:00:23;;;;;;;;;;;7.40;40.00;;;;;;6344949;22;19922;-86
2022/03/23 01:02:49;;;;;;;;;;;7.30;40.00;;;;;;6345389;22;19914;-86
2022/03/23 01:05:15;;;;;;;;;;;7.30;40.00;;;;;;6344331;22;19906;-86
2022/03/23 01:07:41;;;;;;;;;;;7.30;40.10;;;;;;6344103;22;19913;-86
2022/03/23 01:10:11;;;;;;;;;;;7.20;40.10;;;;;;6376141;22;19914;-87
2022/03/23 01:12:36;;;;;;;;;;;7.20;40.10;;;;;;6373197;22;19963;-87
2022/03/23 01:15:03;;;;;;;;;;;7.20;40.20;;;;;;6344317;22;19910;-86
2022/03/23 01:17:29;;;;;;;;;;;7.20;40.30;;;;;;6343640;22;19918;-86
2022/03/23 01:19:54;;;;;;;;;;;7.10;40.40;;;;;;6371590;22;19909;-86
2022/03/23 01:22:20;;;;;;;;;;;7.10;40.40;;;;;;6371121;22;19907;-86
2022/03/23 01:24:45;;;;;;;;;;;7.10;40.50;;;;;;6374223;22;19906;-86
2022/03/23 01:27:11;;;;;;;;;;;7.10;40.60;;;;;;6342187;22;19909;-87
2022/03/23 01:29:36;;;;;;;;;;;7.00;40.60;;;;;;6348678;22;20231;-86
2022/03/23 01:32:02;;;;;;;;;;;6.90;40.70;;;;;;6374276;22;19928;-86
2022/03/23 01:34:28;;;;;;;;;;;6.90;40.80;;;;;;6374055;22;19910;-87
2022/03/23 01:36:53;;;;;;;;;;;6.90;40.80;;;;;;6345420;22;20002;-86
2022/03/23 01:39:19;;;;;;;;;;;6.90;40.90;;;;;;6345942;22;19914;-87
2022/03/23 01:41:46;;;;;;;;;;;6.80;40.90;;;;;;6346730;22;19910;-86
2022/03/23 01:44:13;;;;;;;;;;;6.80;40.90;;;;;;6347421;22;19913;-87
2022/03/23 01:46:57;;;;;;;;;;;6.80;41.00;;;;;;6347798;22;19921;-87
2022/03/23 01:49:22;;;;;;;;;;;6.80;41.00;;;;;;6371126;22;20234;-86
2022/03/23 01:51:48;;;;;;;;;;;6.70;41.10;;;;;;6369884;22;19932;-86
2022/03/23 01:54:13;;;;;;;;;;;6.70;41.10;;;;;;6370488;22;19977;-88
2022/03/23 01:56:40;;;;;;;;;;;6.70;41.20;;;;;;6342227;22;19914;-86
2022/03/23 01:59:05;;;;;;;;;;;6.70;41.20;;;;;;6342364;22;19906;-86
2022/03/23 02:01:31;;;;;;;;;;;6.60;41.20;;;;;;6370380;22;19917;-86
2022/03/23 02:03:56;;;;;;;;;;;6.60;41.30;;;;;;6369647;22;19965;-86
2022/03/23 02:06:22;;;;;;;;;;;6.60;41.40;;;;;;6342455;22;19911;-86
2022/03/23 02:08:47;;;;;;;;;;;6.50;41.40;;;;;;6342085;22;19903;-86
2022/03/23 02:11:13;;;;;;;;;;;6.50;41.50;;;;;;6341935;22;19910;-86
2022/03/23 02:13:38;;;;;;;;;;;6.50;41.50;;;;;;6369868;22;19908;-86
2022/03/23 02:16:04;;;;;;;;;;;6.50;41.60;;;;;;6370274;22;20010;-86
2022/03/23 02:18:30;;;;;;;;;;;6.50;41.70;;;;;;6342444;22;20230;-86
2022/03/23 02:20:56;;;;;;;;;;;6.40;41.80;;;;;;6341935;22;19941;-86
2022/03/23 02:23:21;;;;;;;;;;;6.40;41.90;;;;;;6342082;22;20004;-86
2022/03/23 02:25:49;;;;;;;;;;;6.40;41.90;;;;;;6370474;22;19914;-86
2022/03/23 02:28:14;;;;;;;;;;;6.40;42.00;;;;;;6369786;22;19931;-87
2022/03/23 02:30:40;;;;;;;;;;;6.40;42.00;;;;;;6341995;22;20278;-87
2022/03/23 02:33:06;;;;;;;;;;;6.30;42.00;;;;;;6341985;22;19907;-86
2022/03/23 02:35:31;;;;;;;;;;;6.30;42.10;;;;;;6341801;22;19918;-86
2022/03/23 02:37:57;;;;;;;;;;;6.20;42.10;;;;;;6342210;22;19985;-86
2022/03/23 02:40:22;;;;;;;;;;;6.20;42.30;;;;;;6370419;22;19910;-86
2022/03/23 02:42:48;;;;;;;;;;;6.20;42.30;;;;;;6341911;22;19932;-86
2022/03/23 02:45:14;;;;;;;;;;;6.20;42.40;;;;;;6369806;22;20322;-85
2022/03/23 02:47:41;;;;;;;;;;;6.20;42.40;;;;;;6342002;22;19910;-86
2022/03/23 02:50:07;;;;;;;;;;;6.20;42.40;;;;;;6342103;22;20311;-86
2022/03/23 02:52:32;;;;;;;;;;;6.20;42.40;;;;;;6342360;22;19968;-87
2022/03/23 03:03:14;;;;;;;;;;;6.20;42.70;;;;;;6369984;22;19959;-87
2022/03/23 03:05:40;;;;;;;;;;;6.10;42.70;;;;;;6342613;22;19914;-86
2022/03/23 03:10:49;;;;;;;;;;;6.20;42.70;;;;;;6370760;22;19989;-86
2022/03/23 03:13:15;;;;;;;;;;;6.10;42.70;;;;;;6369965;22;20222;-87
2022/03/23 03:15:43;;;;;;;;;;;6.10;42.70;;;;;;6343051;22;19906;-87
2022/03/23 03:18:10;;;;;;;;;;;6.00;42.80;;;;;;6341584;22;19960;-86
2022/03/23 03:20:36;;;;;;;;;;;6.10;42.90;;;;;;6349479;22;19906;-87
2022/03/23 03:23:01;;;;;;;;;;;6.00;42.90;;;;;;6347090;22;19952;-86
2022/03/23 03:25:27;;;;;;;;;;;6.00;42.80;;;;;;6375399;22;19907;-86
2022/03/23 03:27:54;;;;;;;;;;;6.00;42.80;;;;;;6374273;22;19914;-87
2022/03/23 03:30:20;;;;;;;;;;;5.90;42.80;;;;;;6374620;22;20307;-86
2022/03/23 03:32:48;;;;;;;;;;;6.00;42.80;;;;;;6374497;22;20333;-87
2022/03/23 03:35:15;;;;;;;;;;;6.00;42.80;;;;;;6374140;22;19955;-87
2022/03/23 03:37:40;;;;;;;;;;;5.90;42.80;;;;;;6348503;22;19925;-87
2022/03/23 03:40:07;;;;;;;;;;;5.80;42.80;;;;;;6375639;22;20188;-86
2022/03/23 03:42:32;;;;;;;;;;;5.80;42.90;;;;;;6376413;22;20000;-87
2022/03/23 03:44:58;;;;;;;;;;;5.80;42.90;;;;;;6347954;22;19913;-87
2022/03/23 03:47:24;;;;;;;;;;;5.80;43.00;;;;;;6375864;22;19968;-87
2022/03/23 03:49:50;;;;;;;;;;;5.70;43.00;;;;;;6375920;22;20358;-87
2022/03/23 03:52:16;;;;;;;;;;;5.70;43.10;;;;;;6348164;22;20273;-87
2022/03/23 03:54:42;;;;;;;;;;;5.70;43.10;;;;;;6348129;22;19910;-86
2022/03/23 03:57:08;;;;;;;;;;;5.70;43.30;;;;;;6375871;22;19917;-86
2022/03/23 03:59:34;;;;;;;;;;;5.70;43.20;;;;;;6375968;22;20000;-86
2022/03/23 04:02:01;;;;;;;;;;;5.70;43.30;;;;;;6347928;22;20379;-87
2022/03/23 04:04:28;;;;;;;;;;;5.70;43.30;;;;;;6375909;22;19930;-87
2022/03/23 04:06:54;;;;;;;;;;;5.60;43.20;;;;;;6348798;22;19913;-86
2022/03/23 04:09:19;;;;;;;;;;;5.60;43.30;;;;;;6347987;22;20238;-87
2022/03/23 04:11:45;;;;;;;;;;;5.60;43.30;;;;;;6345653;22;19914;-87
2022/03/23 04:14:10;;;;;;;;;;;5.50;43.40;;;;;;6349687;22;19975;-88
2022/03/23 04:16:39;;;;;;;;;;;5.50;43.40;;;;;;6375026;22;19918;-87
2022/03/23 04:19:05;;;;;;;;;;;5.50;43.40;;;;;;6346716;22;19914;-86
2022/03/23 04:21:30;;;;;;;;;;;5.50;43.40;;;;;;6321236;22;19933;-87
2022/03/23 04:23:56;;;;;;;;;;;5.40;43.40;;;;;;6347092;22;19966;-87
2022/03/23 04:26:21;;;;;;;;;;;5.40;43.50;;;;;;6347670;22;19906;-87
2022/03/23 04:28:47;;;;;;;;;;;5.40;43.50;;;;;;6347730;22;19910;-87
2022/03/23 04:31:13;;;;;;;;;;;5.30;43.50;;;;;;6375072;22;20219;-86
2022/03/23 04:33:38;;;;;;;;;;;5.30;43.60;;;;;;6347751;22;19984;-86
2022/03/23 04:36:04;;;;;;;;;;;5.40;43.60;;;;;;6375296;22;19914;-87
2022/03/23 04:38:29;;;;;;;;;;;5.30;43.70;;;;;;6348570;22;19914;-86
2022/03/23 04:40:55;;;;;;;;;;;5.30;43.80;;;;;;6375458;22;20307;-87
2022/03/23 04:43:21;;;;;;;;;;;5.30;43.70;;;;;;6347956;22;19917;-87
2022/03/23 04:45:47;;;;;;;;;;;5.30;43.80;;;;;;6376501;22;19934;-86
2022/03/23 04:48:12;;;;;;;;;;;5.30;43.80;;;;;;6347996;22;19906;-88
2022/03/23 04:50:37;;;;;;;;;;;5.20;43.80;;;;;;6373559;22;19960;-86
2022/03/23 04:53:03;;;;;;;;;;;5.20;43.80;;;;;;6346611;22;19986;-87
2022/03/23 04:55:29;;;;;;;;;;;5.20;43.90;;;;;;6343364;22;19917;-86
2022/03/23 04:57:55;;;;;;;;;;;5.20;44.00;;;;;;6345252;22;19946;-86
2022/03/23 05:00:21;;;;;;;;;;;5.20;44.40;;;;;;6343211;22;19932;-86
2022/03/23 05:02:48;;;;;;;;;;;5.20;44.30;;;;;;6371270;22;19937;-86
2022/03/23 05:05:14;;;;;;;;;;;5.20;44.20;;;;;;6371515;22;19909;-87
2022/03/23 05:07:40;;;;;;;;;;;5.20;44.20;;;;;;6371156;22;19965;-87
2022/03/23 05:10:07;;;;;;;;;;;5.10;44.20;;;;;;6342738;22;19908;-87
2022/03/23 05:12:32;;;;;;;;;;;5.10;44.10;;;;;;6342940;22;19983;-87
2022/03/23 05:14:58;;;;;;;;;;;5.10;44.10;;;;;;6343216;22;20230;-86
2022/03/23 05:17:23;;;;;;;;;;;5.20;44.20;;;;;;6342300;22;19945;-87
2022/03/23 05:19:49;;;;;;;;;;;5.10;44.30;;;;;;6371002;22;19936;-87
2022/03/23 05:22:15;;;;;;;;;;;5.10;44.50;;;;;;6342212;22;20180;-86
2022/03/23 05:24:40;;;;;;;;;;;5.10;44.40;;;;;;6342655;22;19906;-88
2022/03/23 05:27:06;;;;;;;;;;;5.10;44.40;;;;;;6342807;22;19906;-86
2022/03/23 05:29:32;;;;;;;;;;;5.10;44.40;;;;;;6370870;22;19913;-87
2022/03/23 05:31:58;;;;;;;;;;;5.10;44.50;;;;;;6370218;22;19908;-88
2022/03/23 05:34:24;;;;;;;;;;;5.10;44.70;;;;;;6370861;22;20343;-87
2022/03/23 05:36:49;;;;;;;;;;;5.20;45.00;;;;;;6343477;22;19906;-87
2022/03/23 05:39:14;;;;;;;;;;;5.30;45.20;;;;;;6370094;22;19945;-87
2022/03/23 05:41:40;;;;;;;;;;;5.40;45.50;;;;;;6342752;22;19903;-87
2022/03/23 05:44:06;;;;;;;;;;;5.60;45.80;;;;;;6370161;22;19910;-87
2022/03/23 05:46:32;;;;;;;;;;;5.80;46.00;;;;;;6342147;22;19909;-87
2022/03/23 05:48:57;;;;;;;;;;;6.00;46.20;;;;;;6342521;22;19910;-87
2022/03/23 05:51:23;;;;;;;;;;;6.20;46.60;;;;;;6370754;22;20337;-86
2022/03/23 05:53:50;;;;;;;;;;;6.50;46.80;;;;;;6342361;22;19906;-85
2022/03/23 05:56:16;;;;;;;;;;;6.80;47.00;;;;;;6341954;22;19992;-87
2022/03/23 05:58:41;;;;;;;;;;;7.20;47.20;;;;;;6341981;22;19957;-87
2022/03/23 06:01:07;;;;;;;;;;;7.50;47.40;;;;;;6369500;22;19952;-87
2022/03/23 06:03:33;;;;;;;;;;;7.80;47.70;;;;;;6342092;22;19910;-87
2022/03/23 06:05:58;;;;;;;;;;;8.10;48.10;;;;;;6342455;22;19955;-87
2022/03/23 06:08:27;;;;;;;;;;;8.50;48.70;;;;;;6370457;22;20241;-86
2022/03/23 06:10:52;;;;;;;;;;;8.80;49.40;;;;;;6342736;22;19910;-87
2022/03/23 06:13:18;;;;;;;;;;;9.20;50.00;;;;;;6342271;22;19965;-87
2022/03/23 06:15:43;;;;;;;;;;;9.70;50.70;;;;;;6342364;22;19985;-87
2022/03/23 06:18:09;;;;;;;;;;;10.00;51.40;;;;;;6342323;22;19958;-86
2022/03/23 06:20:34;;;;;;;;;;;10.40;52.00;;;;;;6342615;22;19906;-86
2022/03/23 06:23:00;;;;;;;;;;;10.90;52.50;;;;;;6369876;22;20269;-87
2022/03/23 06:25:26;;;;;;;;;;;11.30;52.90;;;;;;6343146;22;19913;-87
2022/03/23 06:27:52;;;;;;;;;;;11.80;53.30;;;;;;6342309;22;20319;-87
2022/03/23 06:30:17;;;;;;;;;;;12.30;53.60;;;;;;6342140;22;19906;-88
2022/03/23 06:32:42;;;;;;;;;;;12.70;53.70;;;;;;6369904;22;19912;-88
2022/03/23 06:35:08;;;;;;;;;;;13.30;53.90;;;;;;6369493;22;19906;-88
2022/03/23 06:37:34;;;;;;;;;;;13.70;53.90;;;;;;6341635;22;19918;-87
2022/03/23 06:40:00;;;;;;;;;;;14.20;54.10;;;;;;6369919;22;20331;-86
2022/03/23 06:42:27;;;;;;;;;;;14.70;54.10;;;;;;6341542;22;20222;-87
2022/03/23 06:44:52;;;;;;;;;;;15.20;54.10;;;;;;6370113;22;19910;-87
2022/03/23 06:47:18;;;;;;;;;;;15.70;54.00;;;;;;6341713;22;20227;-87
2022/03/23 06:49:43;;;;;;;;;;;16.10;54.00;;;;;;6342006;22;19906;-87
2022/03/23 06:52:09;;;;;;;;;;;16.60;53.80;;;;;;6369631;22;19913;-87
2022/03/23 06:54:34;;;;;;;;;;;17.10;53.70;;;;;;6369693;22;19951;-86
2022/03/23 06:57:00;;;;;;;;;;;17.60;53.50;;;;;;6341393;22;19914;-86
2022/03/23 06:59:27;;;;;;;;;;;18.00;52.90;;;;;;6370097;22;19914;-87
2022/03/23 07:01:52;;;;;;;;;;;18.50;51.70;;;;;;6370037;22;19906;-87
2022/03/23 07:04:18;;;;;;;;;;;18.90;51.30;;;;;;6369627;22;19917;-88
2022/03/23 07:06:43;;;;;;;;;;;19.30;51.30;;;;;;6369801;22;19955;-87
2022/03/23 07:11:52;;;;;;;;;;;20.20;49.50;;;;;;6369952;22;19913;-87
2022/03/23 07:14:18;;;;;;;;;;;20.50;48.00;;;;;;6344707;22;19911;-88
2022/03/23 07:16:44;;;;;;;;;;;20.90;47.00;;;;;;6344647;22;20408;-87
2022/03/23 07:19:10;;;;;;;;;;;21.30;46.20;;;;;;6344789;22;19921;-88
2022/03/23 07:21:35;;;;;;;;;;;21.70;45.80;;;;;;6372517;22;19902;-87
2022/03/23 07:24:01;;;;;;;;;;;22.10;45.10;;;;;;6344004;22;19951;-88
2022/03/23 07:26:26;;;;;;;;;;;22.50;43.60;;;;;;6344254;22;19989;-87
2022/03/23 07:28:52;;;;;;;;;;;22.80;41.80;;;;;;6344946;22;19915;-88
2022/03/23 07:31:17;;;;;;;;;;;23.20;40.50;;;;;;6372352;22;20266;-88
2022/03/23 07:33:43;;;;;;;;;;;23.60;39.40;;;;;;6372607;22;19949;-87
2022/03/23 07:36:11;;;;;;;;;;;23.90;39.20;;;;;;6372586;22;19913;-88
2022/03/23 07:38:36;;;;;;;;;;;24.30;38.10;;;;;;6343274;22;19984;-88
2022/03/23 07:41:01;;;;;;;;;;;24.70;36.70;;;;;;6371661;22;19913;-88
2022/03/23 07:43:27;;;;;;;;;;;25.00;35.70;;;;;;6342677;22;19929;-89
2022/03/23 07:45:52;;;;;;;;;;;25.30;33.80;;;;;;6343552;22;19917;-88
2022/03/23 07:48:20;;;;;;;;;;;25.70;32.40;;;;;;6343194;22;20323;-88
2022/03/23 07:50:45;;;;;;;;;;;25.90;31.10;;;;;;6371250;22;20344;-89
2022/03/23 07:53:11;;;;;;;;;;;26.20;31.00;;;;;;6343093;22;19938;-89
2022/03/23 07:55:37;;;;;;;;;;;26.40;30.00;;;;;;6343499;22;19942;-88
2022/03/23 07:58:02;;;;;;;;;;;26.80;29.70;;;;;;6371879;22;19922;-88
2022/03/23 08:00:28;;;;;;;;;;;27.10;29.20;;;;;;6343791;22;19928;-89
2022/03/23 08:02:53;;;;;;;;;;;27.40;28.60;;;;;;6371294;22;20368;-88
2022/03/23 08:05:19;;;;;;;;;;;27.70;25.80;;;;;;6370706;22;20271;-90
2022/03/23 08:07:45;;;;;;;;;;;27.80;24.70;;;;;;6343544;22;19911;-88
2022/03/23 08:10:10;;;;;;;;;;;27.90;24.40;;;;;;6343403;22;19902;-88
2022/03/23 08:12:36;;;;;;;;;;;28.00;24.60;;;;;;6343898;22;19917;-87
2022/03/23 08:15:02;;;;;;;;;;;28.20;24.80;;;;;;6343120;22;19936;-88
2022/03/23 08:17:28;;;;;;;;;;;28.40;24.40;;;;;;6343951;22;20303;-87
2022/03/23 08:22:38;;;;;;;;;;;28.80;23.90;;;;;;6371958;22;20379;-87
2022/03/23 08:25:04;;;;;;;;;;;29.00;23.90;;;;;;6344954;22;19914;-88
2022/03/23 08:27:29;;;;;;;;;;;29.30;22.80;;;;;;6344913;22;19941;-88
2022/03/23 08:30:05;;;;;;;;;;;29.50;22.40;;;;;;6343574;22;19906;-88
2022/03/23 08:32:30;;;;;;;;;;;29.70;22.00;;;;;;6344019;22;19952;-88
2022/03/23 08:34:56;;;;;;;;;;;29.90;21.30;;;;;;6371765;22;19906;-88
2022/03/23 08:37:21;;;;;;;;;;;29.90;21.00;;;;;;6372131;22;20313;-88
2022/03/23 08:39:47;;;;;;;;;;;30.00;21.10;;;;;;6345255;22;19915;-88
2022/03/23 08:42:12;;;;;;;;;;;30.10;20.70;;;;;;6345779;22;19917;-89
2022/03/23 08:44:40;;;;;;;;;;;30.30;21.10;;;;;;6372610;22;19897;-88
2022/03/23 08:47:05;;;;;;;;;;;30.60;21.10;;;;;;6345155;22;19902;-88
2022/03/23 08:49:31;;;;;;;;;;;30.90;20.70;;;;;;6343332;22;20164;-88
2022/03/23 08:51:56;;;;;;;;;;;31.10;20.00;;;;;;6342426;22;19948;-87
2022/03/23 08:54:24;;;;;;;;;;;31.20;20.00;;;;;;6347900;22;19915;-88
2022/03/23 08:56:49;;;;;;;;;;;31.30;20.00;;;;;;6346124;22;19964;-88
2022/03/23 08:59:15;;;;;;;;;;;31.40;19.40;;;;;;6344538;22;19918;-86
2022/03/23 09:01:40;;;;;;;;;;;31.60;19.60;;;;;;6344463;22;20238;-89
2022/03/23 09:04:08;;;;;;;;;;;31.80;19.50;;;;;;6345562;22;20283;-88
2022/03/23 09:06:33;;;;;;;;;;;32.00;19.30;;;;;;6345515;22;20303;-89
2022/03/23 09:08:59;;;;;;;;;;;32.20;18.70;;;;;;6345192;22;19914;-90
2022/03/23 09:11:24;;;;;;;;;;;32.30;17.80;;;;;;6345994;22;20329;-88
2022/03/23 09:13:50;;;;;;;;;;;32.30;17.70;;;;;;6372647;22;19915;-87
2022/03/23 09:16:15;;;;;;;;;;;32.40;17.90;;;;;;6372915;22;19910;-88
2022/03/23 09:18:41;;;;;;;;;;;32.60;18.10;;;;;;6346118;22;19981;-88
2022/03/23 09:21:07;;;;;;;;;;;32.80;18.00;;;;;;6345136;22;19906;-88
2022/03/23 09:23:32;;;;;;;;;;;33.10;17.70;;;;;;6344214;22;19942;-87
2022/03/23 09:25:58;;;;;;;;;;;33.30;17.10;;;;;;6344309;22;19907;-89
2022/03/23 09:28:23;;;;;;;;;;;33.30;16.90;;;;;;6344377;22;20238;-89
2022/03/23 09:30:49;;;;;;;;;;;33.30;16.50;;;;;;6371542;22;19960;-88
2022/03/23 09:33:15;;;;;;;;;;;33.30;16.50;;;;;;6372144;22;20247;-88
2022/03/23 09:35:40;;;;;;;;;;;33.40;16.50;;;;;;6344315;22;20287;-89
2022/03/23 09:38:06;;;;;;;;;;;33.60;16.50;;;;;;6371583;22;19914;-87
2022/03/23 09:40:32;;;;;;;;;;;33.80;16.40;;;;;;6343729;22;19906;-89
2022/03/23 09:43:02;;;;;;;;;;;33.90;16.30;;;;;;6342560;22;19910;-88
2022/03/23 09:48:00;;;;;;;;;;;34.20;15.90;;;;;;6371999;22;20326;-88
2022/03/23 09:50:28;;;;;;;;;;;34.40;15.80;;;;;;6373559;22;19906;-88
2022/03/23 09:52:53;;;;;;;;;;;34.50;15.60;;;;;;6343828;22;19910;-88
2022/03/23 09:55:20;;;;;;;;;;;34.70;15.60;;;;;;6343937;22;19912;-88
2022/03/23 09:57:45;;;;;;;;;;;34.80;15.10;;;;;;6371864;22;19928;-88
2022/03/23 10:00:12;;;;;;;;;;;34.80;14.70;;;;;;6344238;22;19934;-89
2022/03/23 10:02:40;;;;;;;;;;;34.80;14.60;;;;;;6343262;22;19913;-88
2022/03/23 10:05:28;;;;;;;;;;;34.80;13.70;;;;;;6371980;22;19907;-87
2022/03/23 10:08:10;;;;;;;;;;;34.70;13.60;;;;;;6342724;22;19919;-88
2022/03/23 10:10:59;;;;;;;;;;;34.60;13.50;;;;;;6372746;22;20318;-88
2022/03/23 10:13:43;;;;;;;;;;;34.60;13.50;;;;;;6343212;22;19922;-88
2022/03/23 10:16:27;;;;;;;;;;;34.50;13.80;;;;;;6345521;22;19944;-88
2022/03/23 10:18:56;;;;;;;;;;;34.50;13.30;;;;;;6345575;22;19918;-89
2022/03/23 10:21:24;;;;;;;;;;;34.40;13.20;;;;;;6372395;22;19910;-88
2022/03/23 10:24:10;;;;;;;;;;;34.40;13.10;;;;;;6344405;22;19911;-88
2022/03/23 10:26:36;;;;;;;;;;;34.40;13.60;;;;;;6317571;22;19951;-89
2022/03/23 10:29:25;;;;;;;;;;;34.70;13.40;;;;;;6372854;22;19933;-89
2022/03/23 10:32:04;;;;;;;;;;;34.80;13.70;;;;;;6249670;22;19907;-87
2022/03/23 10:34:40;;;;;;;;;;;35.20;13.60;;;;;;6280998;22;19957;-88
2022/03/23 10:37:06;;;;;;;;;;;35.30;13.20;;;;;;6276033;22;19911;-88
2022/03/23 10:39:32;;;;;;;;;;;35.40;13.10;;;;;;6250825;22;20386;-88
2022/03/23 10:42:05;;;;;;;;;;;35.30;12.30;;;;;;6276046;22;19903;-88
2022/03/23 10:44:31;;;;;;;;;;;35.20;11.90;;;;;;6250758;22;19911;-87
2022/03/23 10:46:58;;;;;;;;;;;35.10;12.40;;;;;;6249325;22;19910;-88
2022/03/23 10:49:37;;;;;;;;;;;35.20;12.30;;;;;;6275777;22;19926;-88
2022/03/23 10:52:11;;;;;;;;;;;35.20;11.90;;;;;;6275830;22;19911;-88
2022/03/23 10:54:37;;;;;;;;;;;35.20;12.20;;;;;;6282507;22;19915;-89
2022/03/23 10:57:02;;;;;;;;;;;35.20;12.00;;;;;;6280560;22;19919;-88
2022/03/23 10:59:28;;;;;;;;;;;35.20;11.50;;;;;;6280609;22;19911;-88
2022/03/23 11:02:02;;;;;;;;;;;35.10;11.40;;;;;;6289405;22;19917;-88
2022/03/23 11:04:29;;;;;;;;;;;35.10;11.60;;;;;;6346221;22;19913;-89
2022/03/23 11:06:56;;;;;;;;;;;35.00;11.30;;;;;;6373713;22;19929;-89
2022/03/23 11:18:05;;;;;;;;;;;34.80;11.70;;;;;;6340057;22;20399;-89
2022/03/23 11:20:53;;;;;;;;;;;35.20;11.70;;;;;;6338468;22;19949;-88
2022/03/23 11:23:26;;;;;;;;;;;35.30;11.60;;;;;;6340739;22;20642;-88
2022/03/23 11:25:53;;;;;;;;;;;35.40;11.40;;;;;;6312600;22;19910;-88
2022/03/23 11:28:19;;;;;;;;;;;35.60;11.80;;;;;;6311678;22;19911;-88
2022/03/23 11:30:45;;;;;;;;;;;35.80;11.50;;;;;;6312401;22;20322;-88
2022/03/23 11:33:13;;;;;;;;;;;35.60;11.10;;;;;;6339684;22;19915;-88
2022/03/23 11:35:45;;;;;;;;;;;35.50;11.20;;;;;;6311921;22;20315;-89
2022/03/23 11:38:12;;;;;;;;;;;35.60;11.50;;;;;;6340434;22;19946;-89
2022/03/23 11:40:39;;;;;;;;;;;35.80;11.50;;;;;;6311530;22;19907;-88
2022/03/23 11:43:05;;;;;;;;;;;36.00;11.50;;;;;;6340971;22;20328;-89
2022/03/23 11:45:30;;;;;;;;;;;36.10;11.20;;;;;;6336405;22;19957;-87
2022/03/23 11:48:01;;;;;;;;;;;36.20;11.10;;;;;;6339212;22;19936;-89
2022/03/23 11:50:29;;;;;;;;;;;36.20;11.10;;;;;;6339024;22;20033;-87
2022/03/23 11:53:01;;;;;;;;;;;36.10;11.10;;;;;;6338886;22;19917;-88
2022/03/23 11:55:38;;;;;;;;;;;36.20;11.10;;;;;;6338592;22;19910;-89
2022/03/23 11:58:05;;;;;;;;;;;36.10;11.20;;;;;;6310843;22;19971;-88
2022/03/23 12:00:41;;;;;;;;;;;36.20;11.40;;;;;;6312829;22;19986;-88
2022/03/23 12:03:07;;;;;;;;;;;36.20;11.10;;;;;;6340772;22;19918;-88
2022/03/23 12:05:57;;;;;;;;;;;36.10;11.40;;;;;;6341094;22;19910;-89
2022/03/23 12:08:42;;;;;;;;;;;36.20;11.10;;;;;;6301703;22;19950;-90
2022/03/23 12:11:31;;;;;;;;;;;36.30;11.40;;;;;;6340816;22;19981;-89
2022/03/23 12:14:00;;;;;;;;;;;36.30;11.10;;;;;;6340922;22;19921;-88
2022/03/23 12:16:44;;;;;;;;;;;36.10;11.10;;;;;;6340950;22;19915;-87
2022/03/23 12:19:10;;;;;;;;;;;36.00;11.20;;;;;;6339515;22;20398;-89
2022/03/23 12:21:43;;;;;;;;;;;36.10;11.50;;;;;;6341595;22;19913;-88
2022/03/23 12:24:33;;;;;;;;;;;36.20;11.40;;;;;;6341920;22;19930;-88
2022/03/23 12:27:01;;;;;;;;;;;36.00;11.10;;;;;;6313544;22;19960;-88
2022/03/23 12:29:28;;;;;;;;;;;35.70;11.20;;;;;;6312375;22;20227;-89
2022/03/23 12:32:05;;;;;;;;;;;35.70;11.20;;;;;;6341952;22;19911;-88
2022/03/23 12:34:32;;;;;;;;;;;35.60;11.40;;;;;;6339644;22;20387;-89
2022/03/23 12:37:08;;;;;;;;;;;35.60;11.30;;;;;;6340000;22;19930;-87
2022/03/23 12:39:35;;;;;;;;;;;35.50;11.40;;;;;;6340036;22;19913;-88
2022/03/23 12:42:16;;;;;;;;;;;35.60;11.60;;;;;;6312683;22;19910;-88
2022/03/23 12:44:45;;;;;;;;;;;35.60;11.50;;;;;;6313314;22;19915;-89
2022/03/23 12:47:11;;;;;;;;;;;35.60;11.30;;;;;;6312524;22;19910;-88
2022/03/23 12:58:12;;;;;;;;;;;34.30;11.30;;;;;;6340802;22;19926;-88
2022/03/23 13:00:40;;;;;;;;;;;34.20;11.20;;;;;;6339997;22;20286;-88
2022/03/23 13:03:05;;;;;;;;;;;34.00;11.20;;;;;;6311631;22;19911;-88
2022/03/23 13:05:32;;;;;;;;;;;33.70;11.40;;;;;;6340186;22;19907;-88
2022/03/23 13:07:57;;;;;;;;;;;33.60;11.40;;;;;;6340299;22;19944;-89
2022/03/23 13:10:26;;;;;;;;;;;33.30;11.30;;;;;;6311720;22;19940;-88
2022/03/23 13:13:04;;;;;;;;;;;33.10;11.70;;;;;;6341585;22;20349;-88
2022/03/23 13:15:29;;;;;;;;;;;32.90;11.90;;;;;;6340665;22;20319;-87
2022/03/23 13:17:56;;;;;;;;;;;32.80;12.00;;;;;;6339371;22;19925;-89
2022/03/23 13:20:25;;;;;;;;;;;32.60;11.80;;;;;;6338714;22;19911;-88
2022/03/23 13:22:53;;;;;;;;;;;32.30;12.00;;;;;;6340289;22;19911;-88
2022/03/23 13:25:18;;;;;;;;;;;32.10;12.20;;;;;;6340146;22;19910;-89
2022/03/23 13:27:44;;;;;;;;;;;31.90;12.40;;;;;;6338532;22;19914;-88
2022/03/23 13:30:11;;;;;;;;;;;31.60;12.50;;;;;;6337298;22;19947;-89
2022/03/23 13:32:39;;;;;;;;;;;31.20;12.50;;;;;;6312441;22;19930;-88
2022/03/23 13:35:16;;;;;;;;;;;30.70;12.80;;;;;;6339904;22;19914;-90
2022/03/23 13:37:51;;;;;;;;;;;30.10;13.10;;;;;;6313306;22;20362;-89
2022/03/23 13:40:20;;;;;;;;;;;29.50;13.40;;;;;;6312225;22;19910;-88
2022/03/23 13:45:30;;;;;;;;;;;28.50;14.00;;;;;;6340188;22;19978;-89
2022/03/23 13:47:56;;;;;;;;;;;28.00;14.30;;;;;;6337687;22;19911;-89
2022/03/23 13:50:22;;;;;;;;;;;27.60;14.40;;;;;;6340258;22;19911;-88
2022/03/23 13:52:47;;;;;;;;;;;27.20;14.60;;;;;;6339240;22;19902;-87
2022/03/23 13:55:16;;;;;;;;;;;26.90;14.90;;;;;;6339155;22;19931;-88
2022/03/23 13:57:42;;;;;;;;;;;26.60;15.10;;;;;;6337828;22;19918;-88
2022/03/23 14:00:38;;;;;;;;;;;26.30;15.30;;;;;;6310714;22;19956;-90
2022/03/23 14:03:04;;;;;;;;;;;26.10;15.60;;;;;;6313465;22;19911;-89
2022/03/23 14:05:30;;;;;;;;;;;25.80;15.70;;;;;;6337978;22;19938;-87
2022/03/23 14:07:56;;;;;;;;;;;25.70;15.90;;;;;;6337990;22;19984;-88
2022/03/23 14:10:28;;;;;;;;;;;25.50;15.90;;;;;;6339188;22;19990;-88
2022/03/23 14:12:56;;;;;;;;;;;25.30;16.10;;;;;;6338240;22;19907;-88
2022/03/23 14:15:22;;;;;;;;;;;25.20;16.10;;;;;;6336947;22;19921;-88
2022/03/23 14:17:47;;;;;;;;;;;25.10;16.30;;;;;;6338433;22;19942;-88
2022/03/23 14:20:13;;;;;;;;;;;25.00;16.30;;;;;;6335992;22;19922;-87
2022/03/23 14:22:42;;;;;;;;;;;24.90;16.50;;;;;;6336527;22;19911;-89
2022/03/23 14:25:12;;;;;;;;;;;24.80;16.60;;;;;;6338429;22;19907;-91
2022/03/23 14:27:41;;;;;;;;;;;24.80;16.70;;;;;;6308739;22;20318;-89
2022/03/23 14:30:08;;;;;;;;;;;24.80;16.80;;;;;;6339058;22;20338;-90
2022/03/23 14:33:00;;;;;;;;;;;24.70;17.00;;;;;;6312789;22;19918;-89
2022/03/23 14:35:36;;;;;;;;;;;24.70;17.00;;;;;;6340606;22;19938;-88
2022/03/23 14:38:05;;;;;;;;;;;24.60;17.00;;;;;;6311605;22;20300;-89
2022/03/23 14:40:34;;;;;;;;;;;24.50;17.10;;;;;;6311670;22;19907;-87
2022/03/23 14:43:01;;;;;;;;;;;24.50;17.10;;;;;;6311207;22;19921;-89
2022/03/23 14:45:34;;;;;;;;;;;24.40;17.20;;;;;;6312005;22;19992;-89
2022/03/23 14:48:20;;;;;;;;;;;24.40;17.30;;;;;;6312767;22;19944;-89
2022/03/23 14:50:47;;;;;;;;;;;24.30;17.40;;;;;;6310424;22;19933;-88
2022/03/23 14:53:13;;;;;;;;;;;24.30;17.40;;;;;;6338573;22;20525;-90
2022/03/23 14:55:41;;;;;;;;;;;24.20;17.50;;;;;;6339403;22;19914;-88
2022/03/23 14:58:07;;;;;;;;;;;24.20;17.60;;;;;;6312590;22;19946;-89
2022/03/23 15:00:34;;;;;;;;;;;24.10;17.70;;;;;;6337682;22;20242;-89
2022/03/23 15:03:00;;;;;;;;;;;24.10;17.70;;;;;;6339271;22;19906;-89
2022/03/23 15:13:37;;;;;;;;;;;23.80;18.00;;;;;;6337840;22;19994;-90